createdAt,value
2023-01-23T00:06:51.077Z,33.7
2023-01-23T00:12:13.755Z,33.6
2023-01-23T00:17:37.313Z,33.6
2023-01-23T00:23:03.898Z,33.6
2023-01-23T00:28:25.495Z,33.6
2023-01-23T00:33:49.758Z,33.5
2023-01-23T00:44:19.773Z,33.4
2023-01-23T00:54:56.515Z,33.4
2023-01-23T01:00:18.982Z,33.4
2023-01-23T01:05:43.569Z,33.4
2023-01-23T01:10:20.466Z,33.3
2023-01-23T01:15:42.166Z,33.3
2023-01-23T01:21:06.019Z,33.3
2023-01-23T01:26:29.137Z,33.3
2023-01-23T01:31:52.605Z,33.2
2023-01-23T01:37:15.976Z,33.2
2023-01-23T01:42:38.963Z,33.1
2023-01-23T01:48:02.087Z,33.1
2023-01-23T01:53:25.421Z,33.1
2023-01-23T02:03:23.784Z,33
2023-01-23T02:08:31.839Z,33
2023-01-23T02:13:55.269Z,32.9
2023-01-23T02:19:18.042Z,32.9
2023-01-23T02:24:28.180Z,32.9
2023-01-23T02:29:51.379Z,32.9
2023-01-23T02:35:14.757Z,32.8
2023-01-23T02:40:38.321Z,32.8
2023-01-23T02:45:46.603Z,32.8
2023-01-23T02:51:10.007Z,32.8
2023-01-23T02:56:32.618Z,32.7
2023-01-23T03:01:56.350Z,32.7
2023-01-23T03:07:19.355Z,32.7
2023-01-23T03:12:42.027Z,32.6
2023-01-23T03:17:49.655Z,32.6
2023-01-23T03:23:10.835Z,32.6
2023-01-23T03:28:18.841Z,32.5
2023-01-23T03:33:42.495Z,32.5
2023-01-23T03:39:05.079Z,32.5
2023-01-23T03:43:57.515Z,32.4
2023-01-23T03:49:04.856Z,32.4
2023-01-23T04:04:12.852Z,32.4
2023-01-23T04:09:19.533Z,32.3
2023-01-23T04:14:18.603Z,32.3
2023-01-23T04:19:42.204Z,32.3
2023-01-23T04:25:03.820Z,32.3
2023-01-23T04:30:26.560Z,32.2
2023-01-23T04:35:51.686Z,32.2
2023-01-23T04:41:14.410Z,32.1
2023-01-23T04:46:38.819Z,32.1
2023-01-23T04:51:47.316Z,32.1
2023-01-23T04:56:53.424Z,32.1
2023-01-23T05:02:17.494Z,32
2023-01-23T05:07:41.578Z,32
2023-01-23T05:13:06.641Z,32
2023-01-23T05:18:14.680Z,31.9
2023-01-23T05:23:23.162Z,31.9
2023-01-23T05:28:29.649Z,31.9
2023-01-23T05:39:04.424Z,31.9
2023-01-23T05:44:28.115Z,31.8
2023-01-23T05:49:20.352Z,31.8
2023-01-23T05:54:44.895Z,31.8
2023-01-23T05:59:54.601Z,31.8
2023-01-23T06:04:46.499Z,31.8
2023-01-23T06:10:10.730Z,31.7
2023-01-23T06:15:17.721Z,31.7
2023-01-23T06:20:27.996Z,31.6
2023-01-23T06:25:52.426Z,31.6
2023-01-23T06:31:15.272Z,31.6
2023-01-23T06:36:42.308Z,31.6
2023-01-23T06:41:53.109Z,31.6
2023-01-23T06:47:16.399Z,31.5
2023-01-23T06:52:39.646Z,31.5
2023-01-23T06:58:03.838Z,31.4
2023-01-23T07:03:26.789Z,31.4
2023-01-23T07:08:49.632Z,30.8
2023-01-23T07:14:13.725Z,29.9
2023-01-23T07:19:38.862Z,29.3
2023-01-23T07:24:45.488Z,28.6
2023-01-23T07:30:09.892Z,28.1
2023-01-23T07:35:34.420Z,27.6
2023-01-23T07:40:57.517Z,27.1
2023-01-23T07:46:21.405Z,26.4
2023-01-23T07:51:45.161Z,25.6
2023-01-23T07:57:10.517Z,24.6
2023-01-23T08:02:39.956Z,23.7
2023-01-23T08:07:46.584Z,22.9
2023-01-23T08:13:19.077Z,22.4
2023-01-23T08:18:27.736Z,21.9
2023-01-23T08:23:50.048Z,21.6
2023-01-23T08:28:57.105Z,21.3
2023-01-23T08:34:06.251Z,21
2023-01-23T08:39:29.559Z,20.8
2023-01-23T08:44:52.987Z,20.6
2023-01-23T08:50:18.176Z,20.4
2023-01-23T08:55:40.933Z,20.3
2023-01-23T09:01:05.967Z,20.1
2023-01-23T09:06:14.821Z,20
2023-01-23T09:11:23.265Z,19.9
2023-01-23T09:16:46.349Z,19.8
2023-01-23T09:22:10.694Z,19.8
2023-01-23T09:27:34.087Z,19.7
2023-01-23T09:32:57.984Z,19.6
2023-01-23T09:38:37.597Z,19.6
2023-01-23T09:43:47.396Z,19.5
2023-01-23T09:49:11.065Z,19.5
2023-01-23T09:54:19.735Z,19.4
2023-01-23T09:59:27.163Z,19.4
2023-01-23T10:05:06.612Z,19.4
2023-01-23T10:10:33.545Z,19.4
2023-01-23T10:15:59.147Z,19.3
2023-01-23T10:21:41.769Z,19.3
2023-01-23T10:27:15.044Z,19.3
2023-01-23T10:32:37.997Z,19.4
2023-01-23T10:38:16.356Z,19.4
2023-01-23T10:43:42.529Z,19.5
2023-01-23T10:49:22.392Z,19.6
2023-01-23T10:55:04.326Z,19.8
2023-01-23T11:00:30.263Z,20
2023-01-23T11:05:52.753Z,20.3
2023-01-23T11:11:15.991Z,20.6
2023-01-23T11:16:42.535Z,21
2023-01-23T11:22:05.154Z,21.4
2023-01-23T11:27:42.297Z,21.9
2023-01-23T11:33:09.827Z,22.4
2023-01-23T11:38:37.657Z,23.1
2023-01-23T11:44:03.788Z,23.7
2023-01-23T11:49:36.565Z,24.3
2023-01-23T11:55:04.620Z,24.9
2023-01-23T12:00:19.194Z,25.6
2023-01-23T12:06:18.466Z,26.2
2023-01-23T12:11:41.449Z,26.9
2023-01-23T12:17:05.531Z,27.5
2023-01-23T12:22:13.939Z,28.1
2023-01-23T12:27:38.343Z,28.7
2023-01-23T12:33:02.110Z,29.3
2023-01-23T12:38:53.693Z,29.9
2023-01-23T12:44:17.639Z,30.4
2023-01-23T12:49:41.242Z,30.6
2023-01-23T12:55:06.227Z,30.8
2023-01-23T13:00:54.789Z,30.9
2023-01-23T13:06:31.841Z,30.9
2023-01-23T13:12:16.397Z,30.9
2023-01-23T13:18:10.234Z,31
2023-01-23T13:23:39.026Z,31
2023-01-23T13:29:17.292Z,31
2023-01-23T13:34:48.592Z,31
2023-01-23T13:40:22.542Z,31
2023-01-23T13:45:55.915Z,31
2023-01-23T13:51:03.842Z,31
2023-01-23T13:56:27.339Z,31
2023-01-23T14:01:51.034Z,31
2023-01-23T14:07:13.280Z,31
2023-01-23T14:12:37.031Z,31
2023-01-23T14:18:01.510Z,31
2023-01-23T14:23:37.296Z,31
2023-01-23T14:29:17.285Z,31
2023-01-23T14:34:51.828Z,30.9
2023-01-23T14:40:11.549Z,30.9
2023-01-23T14:46:06.673Z,30.9
2023-01-23T14:51:45.720Z,30.9
2023-01-23T14:57:28.731Z,30.9
2023-01-23T15:03:02.972Z,30.9
2023-01-23T15:08:27.715Z,30.9
2023-01-23T15:13:50.594Z,30.9
2023-01-23T15:19:14.529Z,30.9
2023-01-23T15:24:39.137Z,30.9
2023-01-23T15:30:14.050Z,30.8
2023-01-23T15:35:39.393Z,30.8
2023-01-23T15:41:03.821Z,30.1
2023-01-23T15:46:41.400Z,28.9
2023-01-23T15:52:12.307Z,28.6
2023-01-23T15:57:49.979Z,27.9
2023-01-23T16:03:29.356Z,27.3
2023-01-23T16:09:00.713Z,26.8
2023-01-23T16:14:25.386Z,26.4
2023-01-23T16:19:45.514Z,26.1
2023-01-23T16:25:59.147Z,25.8
2023-01-23T16:31:24.638Z,25.4
2023-01-23T16:36:48.364Z,25.1
2023-01-23T16:42:12.225Z,24.8
2023-01-23T16:47:36.758Z,24.5
2023-01-23T16:53:16.658Z,24.4
2023-01-23T16:58:53.212Z,24.3
2023-01-23T17:04:32.220Z,24.3
2023-01-23T17:09:55.943Z,24.1
2023-01-23T17:15:02.510Z,24.1
2023-01-23T17:19:53.951Z,23.9
2023-01-23T17:25:17.658Z,23.9
2023-01-23T17:31:03.604Z,23.8
2023-01-23T17:36:34.376Z,23.8
2023-01-23T17:41:57.724Z,23.8
2023-01-23T17:47:23.047Z,23.8
2023-01-23T17:52:31.668Z,23.7
2023-01-23T17:57:57.155Z,23.7
2023-01-23T18:03:22.884Z,23.6
2023-01-23T18:08:43.248Z,23.6
2023-01-23T18:14:09.189Z,23.6
2023-01-23T18:19:41.231Z,23.6
2023-01-23T18:34:51.963Z,23.3
2023-01-23T18:40:10.876Z,23.2
2023-01-23T18:45:27.834Z,23.1
2023-01-23T18:51:33.708Z,23.1
2023-01-23T18:57:08.727Z,22.9
2023-01-23T19:03:02.860Z,22.9
2023-01-23T19:08:42.525Z,22.8
2023-01-23T19:14:13.097Z,22.8
2023-01-23T19:20:09.196Z,22.6
2023-01-23T19:25:46.834Z,22.6
2023-01-23T19:31:38.869Z,22.5
2023-01-23T19:37:16.339Z,22.4
2023-01-23T19:43:14.305Z,22.4
2023-01-23T19:48:54.149Z,22.3
2023-01-23T19:59:24.496Z,22.1
2023-01-23T20:04:42.841Z,22
2023-01-23T20:09:55.380Z,21.9
2023-01-23T20:15:25.902Z,21.8
2023-01-23T20:20:55.627Z,21.7
2023-01-23T20:26:25.964Z,21.6
2023-01-23T20:37:09.736Z,21.6
2023-01-23T20:42:34.877Z,21.7
2023-01-23T20:48:00.688Z,22.1
2023-01-23T20:53:25.553Z,22.6
2023-01-23T20:58:53.438Z,23.2
2023-01-23T21:04:05.044Z,23.9
2023-01-23T21:08:43.047Z,24.6
2023-01-23T21:13:51.242Z,25.3
2023-01-23T21:19:15.704Z,25.8
2023-01-23T21:24:41.383Z,26.2
2023-01-23T21:30:03.643Z,26.5
2023-01-23T21:35:26.829Z,26.7
2023-01-23T21:40:35.666Z,26.8
2023-01-23T21:45:58.400Z,26.9
2023-01-23T21:56:14.047Z,27
2023-01-23T22:01:36.526Z,27
2023-01-23T22:07:00.449Z,27.1
2023-01-23T22:12:25.871Z,27.1
2023-01-23T22:18:08.986Z,27.1
2023-01-23T22:23:32.529Z,27.1
2023-01-23T22:28:56.719Z,27.1
2023-01-23T22:34:30.002Z,27.1
2023-01-23T22:39:52.935Z,27.1
2023-01-23T22:45:17.400Z,27.1
2023-01-23T22:50:40.869Z,27.1
2023-01-23T22:56:06.357Z,27.1
2023-01-23T23:01:15.202Z,27.1
2023-01-23T23:06:38.652Z,27.1
2023-01-23T23:11:30.244Z,27.1
2023-01-23T23:16:22.840Z,27.1
2023-01-23T23:21:30.458Z,27.1
2023-01-23T23:31:46.424Z,27.1
2023-01-23T23:37:09.750Z,27.1
2023-01-23T23:42:32.701Z,27
2023-01-23T23:47:56.581Z,27
2023-01-23T23:53:19.417Z,27
2023-01-23T23:58:26.784Z,27
